sensor_id;sensor_type;location;lat;lon;timestamp;P1;durP1;ratioP1;P2;durP2;ratioP2
10013;SDS011;45684;48.358;10.746;2023-02-12T09:40:30;32.17;;;20.73;;
10013;SDS011;45684;48.358;10.746;2023-02-12T09:43:09;33.27;;;20.03;;
10013;SDS011;45684;48.358;10.746;2023-02-12T09:45:45;31.13;;;19.53;;
10013;SDS011;45684;48.358;10.746;2023-02-12T09:48:31;31.10;;;20.37;;
10013;SDS011;45684;48.358;10.746;2023-02-12T09:51:12;30.80;;;19.73;;
10013;SDS011;45684;48.358;10.746;2023-02-12T09:53:42;30.50;;;18.97;;
10013;SDS011;45684;48.358;10.746;2023-02-12T09:56:19;30.63;;;19.63;;
10013;SDS011;45684;48.358;10.746;2023-02-12T09:58:55;30.00;;;19.23;;
10013;SDS011;45684;48.358;10.746;2023-02-12T10:01:34;26.77;;;19.10;;
10013;SDS011;45684;48.358;10.746;2023-02-12T10:04:02;30.10;;;19.67;;
10013;SDS011;45684;48.358;10.746;2023-02-12T10:06:32;28.47;;;19.10;;
10013;SDS011;45684;48.358;10.746;2023-02-12T10:09:20;32.10;;;21.00;;
10013;SDS011;45684;48.358;10.746;2023-02-12T10:12:05;28.97;;;20.27;;
10013;SDS011;45684;48.358;10.746;2023-02-12T10:14:54;31.07;;;19.90;;
10013;SDS011;45684;48.358;10.746;2023-02-12T10:17:34;28.40;;;20.10;;
10013;SDS011;45684;48.358;10.746;2023-02-12T10:23:17;26.20;;;19.33;;
10013;SDS011;45684;48.358;10.746;2023-02-12T10:25:54;27.17;;;18.80;;
10013;SDS011;45684;48.358;10.746;2023-02-12T10:28:27;27.03;;;18.97;;
10013;SDS011;45684;48.358;10.746;2023-02-12T10:30:58;22.70;;;16.77;;
10013;SDS011;45684;48.358;10.746;2023-02-12T10:33:30;22.80;;;16.20;;
10013;SDS011;45684;48.358;10.746;2023-02-12T10:36:08;21.57;;;15.67;;
10013;SDS011;45684;48.358;10.746;2023-02-12T10:38:46;20.50;;;15.10;;
10013;SDS011;45684;48.358;10.746;2023-02-12T10:41:17;20.53;;;14.40;;
10013;SDS011;45684;48.358;10.746;2023-02-12T10:43:46;19.67;;;13.23;;
10013;SDS011;45684;48.358;10.746;2023-02-12T10:46:14;19.83;;;14.37;;
10013;SDS011;45684;48.358;10.746;2023-02-12T10:48:44;18.73;;;14.50;;
10013;SDS011;45684;48.358;10.746;2023-02-12T10:51:27;13.07;;;9.47;;
10013;SDS011;45684;48.358;10.746;2023-02-12T10:57:13;17.57;;;12.67;;
10013;SDS011;45684;48.358;10.746;2023-02-12T10:59:45;15.77;;;11.10;;
10013;SDS011;45684;48.358;10.746;2023-02-12T11:02:19;15.87;;;12.27;;
10013;SDS011;45684;48.358;10.746;2023-02-12T11:04:50;15.83;;;11.83;;
10013;SDS011;45684;48.358;10.746;2023-02-12T11:07:28;17.10;;;13.20;;
10013;SDS011;45684;48.358;10.746;2023-02-12T11:10:19;19.67;;;13.77;;
10013;SDS011;45684;48.358;10.746;2023-02-12T11:12:47;19.43;;;14.10;;
10013;SDS011;45684;48.358;10.746;2023-02-12T11:15:17;22.53;;;15.40;;
10013;SDS011;45684;48.358;10.746;2023-02-12T11:17:54;18.10;;;13.73;;
10013;SDS011;45684;48.358;10.746;2023-02-12T11:20:24;22.37;;;15.63;;
10013;SDS011;45684;48.358;10.746;2023-02-12T11:22:55;22.33;;;16.27;;
10013;SDS011;45684;48.358;10.746;2023-02-12T11:25:26;22.87;;;16.37;;
10013;SDS011;45684;48.358;10.746;2023-02-12T11:28:00;20.80;;;14.83;;
10013;SDS011;45684;48.358;10.746;2023-02-12T11:30:33;14.77;;;10.43;;
10013;SDS011;45684;48.358;10.746;2023-02-12T11:35:52;21.60;;;16.07;;
10013;SDS011;45684;48.358;10.746;2023-02-12T11:38:26;21.80;;;15.83;;
10013;SDS011;45684;48.358;10.746;2023-02-12T11:40:58;12.20;;;9.33;;
10013;SDS011;45684;48.358;10.746;2023-02-12T11:43:28;8.27;;;7.17;;
10013;SDS011;45684;48.358;10.746;2023-02-12T11:45:59;8.23;;;7.37;;
10013;SDS011;45684;48.358;10.746;2023-02-12T11:48:29;9.93;;;7.63;;
10013;SDS011;45684;48.358;10.746;2023-02-12T11:51:09;8.47;;;7.13;;
10013;SDS011;45684;48.358;10.746;2023-02-12T11:53:49;8.07;;;6.60;;
10013;SDS011;45684;48.358;10.746;2023-02-12T11:56:19;9.37;;;7.50;;
10013;SDS011;45684;48.358;10.746;2023-02-12T11:58:48;9.17;;;6.93;;
10013;SDS011;45684;48.358;10.746;2023-02-12T12:01:21;8.10;;;6.20;;
10013;SDS011;45684;48.358;10.746;2023-02-12T12:03:56;7.67;;;6.37;;
10013;SDS011;45684;48.358;10.746;2023-02-12T12:06:30;7.03;;;5.70;;
10013;SDS011;45684;48.358;10.746;2023-02-12T12:09:03;9.17;;;6.13;;
10013;SDS011;45684;48.358;10.746;2023-02-12T12:11:39;8.40;;;7.13;;
10013;SDS011;45684;48.358;10.746;2023-02-12T12:14:23;9.73;;;6.93;;
10013;SDS011;45684;48.358;10.746;2023-02-12T12:17:11;9.30;;;7.23;;
10013;SDS011;45684;48.358;10.746;2023-02-12T12:20:03;9.23;;;6.90;;
10013;SDS011;45684;48.358;10.746;2023-02-12T12:22:42;7.10;;;6.00;;
10013;SDS011;45684;48.358;10.746;2023-02-12T12:25:21;6.90;;;5.67;;
10013;SDS011;45684;48.358;10.746;2023-02-12T12:27:55;7.03;;;6.20;;
10013;SDS011;45684;48.358;10.746;2023-02-12T12:30:44;8.37;;;6.37;;
10013;SDS011;45684;48.358;10.746;2023-02-12T12:33:23;7.33;;;5.70;;
10013;SDS011;45684;48.358;10.746;2023-02-12T12:36:21;6.80;;;5.53;;
10013;SDS011;45684;48.358;10.746;2023-02-12T12:39:05;6.30;;;5.03;;
10013;SDS011;45684;48.358;10.746;2023-02-12T12:41:46;7.00;;;5.73;;
10013;SDS011;45684;48.358;10.746;2023-02-12T12:44:31;5.73;;;5.13;;
10013;SDS011;45684;48.358;10.746;2023-02-12T12:47:19;5.67;;;5.07;;
10013;SDS011;45684;48.358;10.746;2023-02-12T12:49:56;6.50;;;4.90;;
10013;SDS011;45684;48.358;10.746;2023-02-12T12:52:37;6.70;;;5.57;;
10013;SDS011;45684;48.358;10.746;2023-02-12T12:55:31;6.40;;;5.23;;
10013;SDS011;45684;48.358;10.746;2023-02-12T12:58:11;5.93;;;5.13;;
10013;SDS011;45684;48.358;10.746;2023-02-12T13:00:53;8.10;;;6.60;;
10013;SDS011;45684;48.358;10.746;2023-02-12T13:03:41;8.73;;;6.37;;
10013;SDS011;45684;48.358;10.746;2023-02-12T13:06:28;8.37;;;6.67;;
10013;SDS011;45684;48.358;10.746;2023-02-12T13:09:22;6.53;;;5.60;;
10013;SDS011;45684;48.358;10.746;2023-02-12T13:12:29;8.27;;;6.53;;
10013;SDS011;45684;48.358;10.746;2023-02-12T13:15:13;10.20;;;7.97;;
10013;SDS011;45684;48.358;10.746;2023-02-12T13:17:49;9.03;;;7.47;;
10013;SDS011;45684;48.358;10.746;2023-02-12T13:20:25;8.57;;;6.93;;
10013;SDS011;45684;48.358;10.746;2023-02-12T13:23:15;8.97;;;7.10;;
10013;SDS011;45684;48.358;10.746;2023-02-12T13:25:52;8.20;;;7.17;;
10013;SDS011;45684;48.358;10.746;2023-02-12T13:28:29;8.60;;;7.70;;
10013;SDS011;45684;48.358;10.746;2023-02-12T13:31:01;9.50;;;7.83;;
10013;SDS011;45684;48.358;10.746;2023-02-12T13:33:58;8.80;;;7.70;;
10013;SDS011;45684;48.358;10.746;2023-02-12T13:36:29;8.10;;;7.20;;
10013;SDS011;45684;48.358;10.746;2023-02-12T13:38:58;8.97;;;7.57;;
10013;SDS011;45684;48.358;10.746;2023-02-12T13:41:35;13.70;;;10.30;;
10013;SDS011;45684;48.358;10.746;2023-02-12T13:44:05;13.83;;;10.63;;
10013;SDS011;45684;48.358;10.746;2023-02-12T13:46:45;12.53;;;10.23;;
10013;SDS011;45684;48.358;10.746;2023-02-12T13:49:22;13.83;;;10.80;;
10013;SDS011;45684;48.358;10.746;2023-02-12T13:52:01;14.57;;;10.47;;
10013;SDS011;45684;48.358;10.746;2023-02-12T13:54:47;14.30;;;10.97;;
10013;SDS011;45684;48.358;10.746;2023-02-12T13:57:21;14.20;;;10.60;;
10013;SDS011;45684;48.358;10.746;2023-02-12T13:59:49;14.37;;;10.30;;
10013;SDS011;45684;48.358;10.746;2023-02-12T14:02:27;12.47;;;9.73;;
10013;SDS011;45684;48.358;10.746;2023-02-12T14:05:22;13.87;;;10.20;;
10013;SDS011;45684;48.358;10.746;2023-02-12T14:07:53;12.80;;;9.83;;
10013;SDS011;45684;48.358;10.746;2023-02-12T14:10:25;14.00;;;10.23;;
10013;SDS011;45684;48.358;10.746;2023-02-12T14:12:57;13.47;;;9.70;;
10013;SDS011;45684;48.358;10.746;2023-02-12T14:15:38;13.80;;;10.00;;
10013;SDS011;45684;48.358;10.746;2023-02-12T14:18:24;14.10;;;10.20;;
10013;SDS011;45684;48.358;10.746;2023-02-12T14:27:32;17.60;;;12.87;;
10013;SDS011;45684;48.358;10.746;2023-02-12T14:30:20;19.40;;;13.10;;
10013;SDS011;45684;48.358;10.746;2023-02-12T14:33:08;18.57;;;12.47;;
10013;SDS011;45684;48.358;10.746;2023-02-12T14:41:35;18.20;;;12.47;;
10013;SDS011;45684;48.358;10.746;2023-02-12T14:50:14;14.63;;;10.67;;
10013;SDS011;45684;48.358;10.746;2023-02-12T14:52:53;18.37;;;12.20;;
10013;SDS011;45684;48.358;10.746;2023-02-12T14:55:34;16.33;;;11.60;;
10013;SDS011;45684;48.358;10.746;2023-02-12T14:58:04;17.43;;;11.60;;
10013;SDS011;45684;48.358;10.746;2023-02-12T15:00:46;17.23;;;11.23;;
10013;SDS011;45684;48.358;10.746;2023-02-12T15:03:26;17.03;;;11.73;;
10013;SDS011;45684;48.358;10.746;2023-02-12T15:06:02;17.07;;;11.73;;
10013;SDS011;45684;48.358;10.746;2023-02-12T15:08:40;16.67;;;11.83;;
10013;SDS011;45684;48.358;10.746;2023-02-12T15:11:16;16.90;;;11.47;;
10013;SDS011;45684;48.358;10.746;2023-02-12T15:13:52;17.23;;;12.17;;
10013;SDS011;45684;48.358;10.746;2023-02-12T15:16:28;18.50;;;12.10;;
10013;SDS011;45684;48.358;10.746;2023-02-12T15:19:12;19.77;;;11.80;;
10013;SDS011;45684;48.358;10.746;2023-02-12T15:21:47;15.77;;;11.40;;
10013;SDS011;45684;48.358;10.746;2023-02-12T15:24:20;17.33;;;11.67;;
10013;SDS011;45684;48.358;10.746;2023-02-12T15:26:50;17.23;;;12.10;;
10013;SDS011;45684;48.358;10.746;2023-02-12T15:29:20;16.97;;;11.57;;
10013;SDS011;45684;48.358;10.746;2023-02-12T15:31:53;17.23;;;12.13;;
10013;SDS011;45684;48.358;10.746;2023-02-12T15:34:24;18.13;;;12.60;;
10013;SDS011;45684;48.358;10.746;2023-02-12T15:36:57;17.03;;;12.50;;
10013;SDS011;45684;48.358;10.746;2023-02-12T15:39:27;18.30;;;12.40;;
10013;SDS011;45684;48.358;10.746;2023-02-12T15:42:22;18.20;;;13.13;;
10013;SDS011;45684;48.358;10.746;2023-02-12T15:44:51;17.00;;;12.77;;
10013;SDS011;45684;48.358;10.746;2023-02-12T15:47:30;18.17;;;13.47;;
10013;SDS011;45684;48.358;10.746;2023-02-12T15:50:04;20.47;;;14.37;;
10013;SDS011;45684;48.358;10.746;2023-02-12T15:52:44;19.97;;;13.90;;
10013;SDS011;45684;48.358;10.746;2023-02-12T15:55:15;20.03;;;13.90;;
10013;SDS011;45684;48.358;10.746;2023-02-12T15:57:48;20.50;;;14.47;;
10013;SDS011;45684;48.358;10.746;2023-02-12T16:00:21;20.50;;;15.00;;
10013;SDS011;45684;48.358;10.746;2023-02-12T16:02:56;21.50;;;14.07;;
10013;SDS011;45684;48.358;10.746;2023-02-12T16:05:24;19.17;;;13.37;;
10013;SDS011;45684;48.358;10.746;2023-02-12T16:07:53;19.83;;;13.60;;
10013;SDS011;45684;48.358;10.746;2023-02-12T16:10:21;19.10;;;13.60;;
10013;SDS011;45684;48.358;10.746;2023-02-12T16:12:50;19.47;;;13.43;;
10013;SDS011;45684;48.358;10.746;2023-02-12T16:15:23;17.80;;;13.20;;
10013;SDS011;45684;48.358;10.746;2023-02-12T16:17:57;19.13;;;13.03;;
10013;SDS011;45684;48.358;10.746;2023-02-12T16:20:29;19.93;;;13.27;;
10013;SDS011;45684;48.358;10.746;2023-02-12T16:22:57;18.60;;;13.10;;
10013;SDS011;45684;48.358;10.746;2023-02-12T16:25:31;18.83;;;13.00;;
10013;SDS011;45684;48.358;10.746;2023-02-12T16:28:00;19.07;;;13.40;;
10013;SDS011;45684;48.358;10.746;2023-02-12T16:30:31;20.03;;;13.03;;
10013;SDS011;45684;48.358;10.746;2023-02-12T16:33:01;17.70;;;12.37;;
10013;SDS011;45684;48.358;10.746;2023-02-12T16:35:30;18.77;;;12.63;;
10013;SDS011;45684;48.358;10.746;2023-02-12T16:38:00;19.53;;;13.93;;
10013;SDS011;45684;48.358;10.746;2023-02-12T16:40:31;21.40;;;13.70;;
10013;SDS011;45684;48.358;10.746;2023-02-12T16:45:54;19.27;;;13.53;;
10013;SDS011;45684;48.358;10.746;2023-02-12T16:48:30;19.63;;;12.57;;
10013;SDS011;45684;48.358;10.746;2023-02-12T16:51:04;20.13;;;12.53;;
10013;SDS011;45684;48.358;10.746;2023-02-12T16:53:33;19.93;;;12.30;;
10013;SDS011;45684;48.358;10.746;2023-02-12T16:56:11;18.60;;;11.80;;
10013;SDS011;45684;48.358;10.746;2023-02-12T16:58:44;16.87;;;11.70;;
10013;SDS011;45684;48.358;10.746;2023-02-12T17:01:15;18.57;;;11.93;;
10013;SDS011;45684;48.358;10.746;2023-02-12T17:03:46;19.77;;;12.70;;
10013;SDS011;45684;48.358;10.746;2023-02-12T17:06:17;19.23;;;12.80;;
10013;SDS011;45684;48.358;10.746;2023-02-12T17:08:45;19.53;;;13.67;;
10013;SDS011;45684;48.358;10.746;2023-02-12T17:11:13;25.30;;;15.93;;
10013;SDS011;45684;48.358;10.746;2023-02-12T17:13:43;23.83;;;15.00;;
10013;SDS011;45684;48.358;10.746;2023-02-12T17:16:11;22.40;;;15.43;;
10013;SDS011;45684;48.358;10.746;2023-02-12T17:18:55;24.43;;;14.30;;
10013;SDS011;45684;48.358;10.746;2023-02-12T17:21:23;22.13;;;13.63;;
10013;SDS011;45684;48.358;10.746;2023-02-12T17:23:53;20.20;;;13.50;;
10013;SDS011;45684;48.358;10.746;2023-02-12T17:26:20;22.80;;;14.80;;
10013;SDS011;45684;48.358;10.746;2023-02-12T17:28:49;21.70;;;14.93;;
10013;SDS011;45684;48.358;10.746;2023-02-12T17:31:17;21.77;;;14.33;;
10013;SDS011;45684;48.358;10.746;2023-02-12T17:33:46;21.37;;;14.17;;
10013;SDS011;45684;48.358;10.746;2023-02-12T17:36:15;23.07;;;14.40;;
10013;SDS011;45684;48.358;10.746;2023-02-12T17:38:43;23.00;;;15.00;;
10013;SDS011;45684;48.358;10.746;2023-02-12T17:41:10;22.93;;;14.90;;
10013;SDS011;45684;48.358;10.746;2023-02-12T17:43:38;23.20;;;14.80;;
10013;SDS011;45684;48.358;10.746;2023-02-12T17:46:07;21.37;;;14.47;;
10013;SDS011;45684;48.358;10.746;2023-02-12T17:48:39;23.43;;;14.17;;
10013;SDS011;45684;48.358;10.746;2023-02-12T17:51:08;24.10;;;15.67;;
10013;SDS011;45684;48.358;10.746;2023-02-12T17:53:38;21.40;;;14.67;;
10013;SDS011;45684;48.358;10.746;2023-02-12T17:56:09;21.43;;;13.83;;
10013;SDS011;45684;48.358;10.746;2023-02-12T17:58:37;22.33;;;14.63;;
10013;SDS011;45684;48.358;10.746;2023-02-12T18:01:05;22.27;;;15.17;;
10013;SDS011;45684;48.358;10.746;2023-02-12T18:03:38;22.70;;;15.40;;
10013;SDS011;45684;48.358;10.746;2023-02-12T18:06:07;23.43;;;14.80;;
10013;SDS011;45684;48.358;10.746;2023-02-12T18:08:37;24.87;;;15.10;;
10013;SDS011;45684;48.358;10.746;2023-02-12T18:11:05;22.77;;;13.90;;
10013;SDS011;45684;48.358;10.746;2023-02-12T18:13:35;24.50;;;15.37;;
10013;SDS011;45684;48.358;10.746;2023-02-12T18:16:04;24.37;;;15.33;;
10013;SDS011;45684;48.358;10.746;2023-02-12T18:18:33;25.60;;;15.33;;
10013;SDS011;45684;48.358;10.746;2023-02-12T18:21:04;25.20;;;14.93;;
10013;SDS011;45684;48.358;10.746;2023-02-12T18:23:32;26.07;;;16.20;;
10013;SDS011;45684;48.358;10.746;2023-02-12T18:26:04;26.97;;;16.97;;
10013;SDS011;45684;48.358;10.746;2023-02-12T18:28:33;24.80;;;15.23;;
10013;SDS011;45684;48.358;10.746;2023-02-12T18:31:03;24.33;;;15.93;;
10013;SDS011;45684;48.358;10.746;2023-02-12T18:33:32;29.20;;;16.23;;
10013;SDS011;45684;48.358;10.746;2023-02-12T18:36:00;24.03;;;15.10;;
10013;SDS011;45684;48.358;10.746;2023-02-12T18:38:30;23.70;;;16.00;;
10013;SDS011;45684;48.358;10.746;2023-02-12T18:40:59;25.67;;;16.53;;
10013;SDS011;45684;48.358;10.746;2023-02-12T18:43:32;25.57;;;15.73;;
10013;SDS011;45684;48.358;10.746;2023-02-12T18:46:05;22.70;;;15.63;;
10013;SDS011;45684;48.358;10.746;2023-02-12T18:48:33;23.73;;;15.27;;
10013;SDS011;45684;48.358;10.746;2023-02-12T18:51:01;26.23;;;16.30;;
10013;SDS011;45684;48.358;10.746;2023-02-12T18:53:30;25.90;;;15.63;;
10013;SDS011;45684;48.358;10.746;2023-02-12T18:55:58;24.17;;;15.30;;
10013;SDS011;45684;48.358;10.746;2023-02-12T18:58:30;25.73;;;16.20;;
10013;SDS011;45684;48.358;10.746;2023-02-12T19:00:59;23.23;;;16.73;;
10013;SDS011;45684;48.358;10.746;2023-02-12T19:03:27;25.43;;;17.17;;
10013;SDS011;45684;48.358;10.746;2023-02-12T19:06:00;26.37;;;17.53;;
10013;SDS011;45684;48.358;10.746;2023-02-12T19:08:29;26.07;;;17.07;;
10013;SDS011;45684;48.358;10.746;2023-02-12T19:10:56;26.77;;;16.63;;
10013;SDS011;45684;48.358;10.746;2023-02-12T19:13:24;24.23;;;16.90;;
10013;SDS011;45684;48.358;10.746;2023-02-12T19:15:52;27.77;;;17.23;;
10013;SDS011;45684;48.358;10.746;2023-02-12T19:18:22;26.57;;;17.13;;
10013;SDS011;45684;48.358;10.746;2023-02-12T19:20:49;26.60;;;16.70;;
10013;SDS011;45684;48.358;10.746;2023-02-12T19:23:17;27.33;;;16.40;;
10013;SDS011;45684;48.358;10.746;2023-02-12T19:25:49;24.43;;;16.50;;
10013;SDS011;45684;48.358;10.746;2023-02-12T19:28:17;26.27;;;16.73;;
10013;SDS011;45684;48.358;10.746;2023-02-12T19:30:45;24.97;;;16.70;;
10013;SDS011;45684;48.358;10.746;2023-02-12T19:33:15;26.70;;;16.30;;
10013;SDS011;45684;48.358;10.746;2023-02-12T19:35:51;28.97;;;17.03;;
10013;SDS011;45684;48.358;10.746;2023-02-12T19:38:21;24.97;;;16.27;;
10013;SDS011;45684;48.358;10.746;2023-02-12T19:40:49;24.97;;;15.97;;
10013;SDS011;45684;48.358;10.746;2023-02-12T19:43:17;24.33;;;16.70;;
10013;SDS011;45684;48.358;10.746;2023-02-12T19:45:45;24.47;;;16.57;;
10013;SDS011;45684;48.358;10.746;2023-02-12T19:48:15;26.63;;;16.90;;
10013;SDS011;45684;48.358;10.746;2023-02-12T19:50:43;25.77;;;16.27;;
10013;SDS011;45684;48.358;10.746;2023-02-12T19:53:13;26.90;;;16.33;;
10013;SDS011;45684;48.358;10.746;2023-02-12T19:55:41;28.40;;;16.93;;
10013;SDS011;45684;48.358;10.746;2023-02-12T19:58:08;26.77;;;16.13;;
10013;SDS011;45684;48.358;10.746;2023-02-12T20:00:36;27.97;;;16.67;;
10013;SDS011;45684;48.358;10.746;2023-02-12T20:03:04;23.60;;;16.10;;
10013;SDS011;45684;48.358;10.746;2023-02-12T20:05:39;27.67;;;16.57;;
10013;SDS011;45684;48.358;10.746;2023-02-12T20:08:17;25.63;;;16.43;;
10013;SDS011;45684;48.358;10.746;2023-02-12T20:10:45;26.33;;;16.60;;
10013;SDS011;45684;48.358;10.746;2023-02-12T20:13:14;29.03;;;17.43;;
10013;SDS011;45684;48.358;10.746;2023-02-12T20:15:44;26.90;;;17.27;;
10013;SDS011;45684;48.358;10.746;2023-02-12T20:18:12;29.93;;;17.73;;
10013;SDS011;45684;48.358;10.746;2023-02-12T20:20:39;26.17;;;17.27;;
10013;SDS011;45684;48.358;10.746;2023-02-12T20:23:07;26.73;;;16.20;;
10013;SDS011;45684;48.358;10.746;2023-02-12T20:25:41;27.37;;;16.97;;
10013;SDS011;45684;48.358;10.746;2023-02-12T20:28:10;24.77;;;16.13;;
10013;SDS011;45684;48.358;10.746;2023-02-12T20:30:41;26.87;;;15.87;;
10013;SDS011;45684;48.358;10.746;2023-02-12T20:33:11;27.23;;;16.60;;
10013;SDS011;45684;48.358;10.746;2023-02-12T20:35:43;26.23;;;16.10;;
10013;SDS011;45684;48.358;10.746;2023-02-12T20:38:13;27.53;;;17.10;;
10013;SDS011;45684;48.358;10.746;2023-02-12T20:40:43;25.83;;;15.67;;
10013;SDS011;45684;48.358;10.746;2023-02-12T20:43:10;26.33;;;17.03;;
10013;SDS011;45684;48.358;10.746;2023-02-12T20:45:38;26.53;;;17.20;;
10013;SDS011;45684;48.358;10.746;2023-02-12T20:48:06;26.27;;;16.70;;
10013;SDS011;45684;48.358;10.746;2023-02-12T20:50:34;24.73;;;16.60;;
10013;SDS011;45684;48.358;10.746;2023-02-12T20:53:02;27.63;;;16.67;;
10013;SDS011;45684;48.358;10.746;2023-02-12T20:55:32;26.33;;;16.53;;
10013;SDS011;45684;48.358;10.746;2023-02-12T20:58:07;26.80;;;16.50;;
10013;SDS011;45684;48.358;10.746;2023-02-12T21:00:35;28.73;;;16.97;;
10013;SDS011;45684;48.358;10.746;2023-02-12T21:03:02;26.77;;;16.77;;
10013;SDS011;45684;48.358;10.746;2023-02-12T21:05:31;25.73;;;16.80;;
10013;SDS011;45684;48.358;10.746;2023-02-12T21:07:59;29.27;;;17.43;;
10013;SDS011;45684;48.358;10.746;2023-02-12T21:10:27;27.33;;;17.20;;
10013;SDS011;45684;48.358;10.746;2023-02-12T21:13:01;27.60;;;16.30;;
10013;SDS011;45684;48.358;10.746;2023-02-12T21:15:32;26.70;;;16.23;;
10013;SDS011;45684;48.358;10.746;2023-02-12T21:18:02;24.20;;;15.90;;
10013;SDS011;45684;48.358;10.746;2023-02-12T21:20:30;28.17;;;17.10;;
10013;SDS011;45684;48.358;10.746;2023-02-12T21:22:57;25.83;;;15.83;;
10013;SDS011;45684;48.358;10.746;2023-02-12T21:25:25;25.93;;;16.30;;
10013;SDS011;45684;48.358;10.746;2023-02-12T21:27:53;28.27;;;16.20;;
10013;SDS011;45684;48.358;10.746;2023-02-12T21:30:21;30.53;;;17.33;;
10013;SDS011;45684;48.358;10.746;2023-02-12T21:32:51;27.57;;;16.67;;
10013;SDS011;45684;48.358;10.746;2023-02-12T21:35:18;26.53;;;16.57;;
10013;SDS011;45684;48.358;10.746;2023-02-12T21:37:46;27.20;;;16.80;;
10013;SDS011;45684;48.358;10.746;2023-02-12T21:40:15;28.20;;;17.13;;
10013;SDS011;45684;48.358;10.746;2023-02-12T21:42:43;25.07;;;16.40;;
10013;SDS011;45684;48.358;10.746;2023-02-12T21:45:11;27.07;;;16.97;;
10013;SDS011;45684;48.358;10.746;2023-02-12T21:47:39;27.00;;;17.33;;
10013;SDS011;45684;48.358;10.746;2023-02-12T21:50:08;27.33;;;17.17;;
10013;SDS011;45684;48.358;10.746;2023-02-12T21:52:39;27.47;;;16.47;;
10013;SDS011;45684;48.358;10.746;2023-02-12T21:55:07;29.77;;;16.93;;
10013;SDS011;45684;48.358;10.746;2023-02-12T21:57:35;26.33;;;17.20;;
10013;SDS011;45684;48.358;10.746;2023-02-12T22:00:03;26.70;;;17.00;;
10013;SDS011;45684;48.358;10.746;2023-02-12T22:02:37;26.57;;;16.87;;
10013;SDS011;45684;48.358;10.746;2023-02-12T22:05:05;30.03;;;16.83;;
10013;SDS011;45684;48.358;10.746;2023-02-12T22:07:38;27.03;;;16.50;;
10013;SDS011;45684;48.358;10.746;2023-02-12T22:10:07;25.80;;;16.07;;
10013;SDS011;45684;48.358;10.746;2023-02-12T22:12:35;27.57;;;17.20;;
10013;SDS011;45684;48.358;10.746;2023-02-12T22:15:03;27.40;;;16.73;;
10013;SDS011;45684;48.358;10.746;2023-02-12T22:17:31;25.80;;;16.67;;
10013;SDS011;45684;48.358;10.746;2023-02-12T22:19:59;26.07;;;15.93;;
10013;SDS011;45684;48.358;10.746;2023-02-12T22:22:28;25.73;;;15.33;;
10013;SDS011;45684;48.358;10.746;2023-02-12T22:24:59;26.80;;;16.30;;
10013;SDS011;45684;48.358;10.746;2023-02-12T22:27:29;27.37;;;16.40;;
10013;SDS011;45684;48.358;10.746;2023-02-12T22:30:00;23.73;;;15.93;;
10013;SDS011;45684;48.358;10.746;2023-02-12T22:32:31;21.67;;;14.80;;
10013;SDS011;45684;48.358;10.746;2023-02-12T22:34:59;20.30;;;14.27;;
10013;SDS011;45684;48.358;10.746;2023-02-12T22:37:28;19.97;;;13.53;;
10013;SDS011;45684;48.358;10.746;2023-02-12T22:39:56;15.30;;;12.20;;
10013;SDS011;45684;48.358;10.746;2023-02-12T22:42:24;17.67;;;12.50;;
10013;SDS011;45684;48.358;10.746;2023-02-12T22:44:52;19.10;;;13.57;;
10013;SDS011;45684;48.358;10.746;2023-02-12T22:47:21;20.20;;;14.03;;
10013;SDS011;45684;48.358;10.746;2023-02-12T22:49:49;22.07;;;15.00;;
10013;SDS011;45684;48.358;10.746;2023-02-12T22:52:17;21.60;;;14.37;;
10013;SDS011;45684;48.358;10.746;2023-02-12T22:54:46;20.43;;;14.67;;
10013;SDS011;45684;48.358;10.746;2023-02-12T22:57:14;20.47;;;13.90;;
10013;SDS011;45684;48.358;10.746;2023-02-12T22:59:42;18.07;;;13.53;;
10013;SDS011;45684;48.358;10.746;2023-02-12T23:02:10;18.23;;;13.83;;
10013;SDS011;45684;48.358;10.746;2023-02-12T23:04:38;19.77;;;14.60;;
10013;SDS011;45684;48.358;10.746;2023-02-12T23:07:06;21.87;;;14.60;;
10013;SDS011;45684;48.358;10.746;2023-02-12T23:09:34;22.27;;;14.57;;
10013;SDS011;45684;48.358;10.746;2023-02-12T23:12:03;23.13;;;14.97;;
10013;SDS011;45684;48.358;10.746;2023-02-12T23:14:33;20.93;;;14.57;;
10013;SDS011;45684;48.358;10.746;2023-02-12T23:17:01;21.30;;;15.07;;
10013;SDS011;45684;48.358;10.746;2023-02-12T23:19:29;18.97;;;13.40;;
10013;SDS011;45684;48.358;10.746;2023-02-12T23:21:57;19.47;;;14.30;;
10013;SDS011;45684;48.358;10.746;2023-02-12T23:24:25;19.40;;;14.10;;
10013;SDS011;45684;48.358;10.746;2023-02-12T23:26:53;21.43;;;14.50;;
10013;SDS011;45684;48.358;10.746;2023-02-12T23:29:22;22.97;;;15.00;;
10013;SDS011;45684;48.358;10.746;2023-02-12T23:31:50;22.50;;;15.20;;
10013;SDS011;45684;48.358;10.746;2023-02-12T23:34:18;21.90;;;14.67;;
10013;SDS011;45684;48.358;10.746;2023-02-12T23:36:46;20.77;;;13.73;;
10013;SDS011;45684;48.358;10.746;2023-02-12T23:39:14;20.03;;;13.87;;
10013;SDS011;45684;48.358;10.746;2023-02-12T23:41:41;22.17;;;14.13;;
10013;SDS011;45684;48.358;10.746;2023-02-12T23:44:09;21.60;;;14.60;;
10013;SDS011;45684;48.358;10.746;2023-02-12T23:46:39;21.80;;;13.87;;
10013;SDS011;45684;48.358;10.746;2023-02-12T23:49:07;19.63;;;13.20;;
10013;SDS011;45684;48.358;10.746;2023-02-12T23:51:35;19.83;;;13.13;;
10013;SDS011;45684;48.358;10.746;2023-02-12T23:54:02;20.67;;;13.23;;
10013;SDS011;45684;48.358;10.746;2023-02-12T23:56:30;21.37;;;14.10;;
10013;SDS011;45684;48.358;10.746;2023-02-12T23:58:58;20.47;;;13.90;;
